createdAt,value
2023-02-21T00:00:06.470Z,16.10
2023-02-21T00:01:57.076Z,15.85
2023-02-21T00:03:47.121Z,15.25
2023-02-21T00:05:37.626Z,15.63
2023-02-21T00:07:29.073Z,14.77
2023-02-21T00:09:19.345Z,14.48
2023-02-21T00:11:09.734Z,15.48
2023-02-21T00:12:59.716Z,14.25
2023-02-21T00:14:50.062Z,16.10
2023-02-21T00:16:40.410Z,15.20
2023-02-21T00:18:30.587Z,16.98
2023-02-21T00:20:21.103Z,14.73
2023-02-21T00:22:11.616Z,17.30
2023-02-21T00:24:03.434Z,15.80
2023-02-21T00:25:53.954Z,14.73
2023-02-21T00:27:44.460Z,14.80
2023-02-21T00:29:35.574Z,15.90
2023-02-21T00:31:26.015Z,16.27
2023-02-21T00:33:16.183Z,16.23
2023-02-21T00:35:06.466Z,15.82
2023-02-21T00:36:56.697Z,14.52
2023-02-21T00:38:47.081Z,15.18
2023-02-21T00:40:38.703Z,16.20
2023-02-21T00:42:29.117Z,17.42
2023-02-21T00:44:19.485Z,15.07
2023-02-21T00:46:10.002Z,16.63
2023-02-21T00:48:00.512Z,15.75
2023-02-21T00:49:51.035Z,16.60
2023-02-21T00:51:41.289Z,15.82
2023-02-21T00:53:31.613Z,15.65
2023-02-21T00:55:22.055Z,15.90
2023-02-21T00:57:13.640Z,16.17
2023-02-21T00:59:04.093Z,17.83
2023-02-21T01:00:54.252Z,17.08
2023-02-21T01:02:44.686Z,19.70
2023-02-21T01:04:35.020Z,17.90
2023-02-21T01:06:28.213Z,17.05
2023-02-21T01:08:18.597Z,16.83
2023-02-21T01:10:08.996Z,16.52
2023-02-21T01:11:59.341Z,15.18
2023-02-21T01:13:51.055Z,18.00
2023-02-21T01:15:41.238Z,17.20
2023-02-21T01:17:31.369Z,19.25
2023-02-21T01:19:21.810Z,15.10
2023-02-21T01:21:12.297Z,18.50
2023-02-21T01:23:02.502Z,19.33
2023-02-21T01:24:52.787Z,16.85
2023-02-21T01:26:43.106Z,16.55
2023-02-21T01:28:33.409Z,16.80
2023-02-21T01:30:25.958Z,15.63
2023-02-21T01:32:16.314Z,15.05
2023-02-21T01:34:06.702Z,15.80
2023-02-21T01:35:57.206Z,17.35
2023-02-21T01:37:47.609Z,15.82
2023-02-21T01:39:37.966Z,16.77
2023-02-21T01:41:28.351Z,15.98
2023-02-21T01:43:18.629Z,18.45
2023-02-21T01:45:42.339Z,16.48
2023-02-21T01:47:33.860Z,16.17
2023-02-21T01:49:25.950Z,16.77
2023-02-21T01:51:16.830Z,15.90
2023-02-21T01:53:07.287Z,16.08
2023-02-21T01:55:01.069Z,18.40
2023-02-21T01:56:51.268Z,15.93
2023-02-21T01:58:41.770Z,18.38
2023-02-21T02:00:33.121Z,17.58
2023-02-21T02:02:25.480Z,16.02
2023-02-21T02:04:17.142Z,15.55
2023-02-21T02:06:08.470Z,14.95
2023-02-21T02:07:58.917Z,15.35
2023-02-21T02:09:49.436Z,15.75
2023-02-21T02:11:51.037Z,16.67
2023-02-21T02:13:30.282Z,14.60
2023-02-21T02:15:24.768Z,15.88
2023-02-21T02:16:58.735Z,15.27
2023-02-21T02:18:51.131Z,16.73
2023-02-21T02:20:57.540Z,15.90
2023-02-21T02:22:39.371Z,15.13
2023-02-21T02:24:32.904Z,16.02
2023-02-21T02:26:26.684Z,16.52
2023-02-21T02:28:17.574Z,20.60
2023-02-21T02:30:30.842Z,16.33
2023-02-21T02:32:13.773Z,16.73
2023-02-21T02:34:18.150Z,15.48
2023-02-21T02:35:51.553Z,17.00
2023-02-21T02:37:24.632Z,14.45
2023-02-21T02:39:00.531Z,16.00
2023-02-21T02:40:33.424Z,14.25
2023-02-21T02:42:07.825Z,15.18
2023-02-21T02:43:41.810Z,16.35
2023-02-21T02:45:15.236Z,14.38
2023-02-21T02:46:47.176Z,14.70
2023-02-21T02:48:21.388Z,19.35
2023-02-21T02:49:52.989Z,18.27
2023-02-21T02:51:25.928Z,15.15
2023-02-21T02:53:01.305Z,17.13
2023-02-21T02:54:32.869Z,15.80
2023-02-21T02:56:05.787Z,14.75
2023-02-21T02:57:41.187Z,13.73
2023-02-21T02:59:14.190Z,14.93
2023-02-21T03:00:47.678Z,16.38
2023-02-21T03:02:27.340Z,15.95
2023-02-21T03:04:06.945Z,15.80
2023-02-21T03:05:51.277Z,17.42
2023-02-21T03:07:26.973Z,17.00
2023-02-21T03:09:03.170Z,14.23
2023-02-21T03:10:39.895Z,14.82
2023-02-21T03:12:15.437Z,13.48
2023-02-21T03:13:48.918Z,15.38
2023-02-21T03:15:21.891Z,13.65
2023-02-21T03:16:55.177Z,13.95
2023-02-21T03:18:28.972Z,14.25
2023-02-21T03:20:00.687Z,14.70
2023-02-21T03:21:36.896Z,14.65
2023-02-21T03:23:10.158Z,14.75
2023-02-21T03:24:42.643Z,14.48
2023-02-21T03:26:14.302Z,14.00
2023-02-21T03:27:45.976Z,16.42
2023-02-21T03:29:17.638Z,14.27
2023-02-21T03:30:49.322Z,14.48
2023-02-21T03:32:22.319Z,13.52
2023-02-21T03:33:54.237Z,13.30
2023-02-21T03:35:29.507Z,13.63
2023-02-21T03:37:01.359Z,13.18
2023-02-21T03:38:34.491Z,13.82
2023-02-21T03:40:07.460Z,14.73
2023-02-21T03:41:39.106Z,14.40
2023-02-21T03:43:10.769Z,14.02
2023-02-21T03:44:42.458Z,13.65
2023-02-21T03:46:14.206Z,12.45
2023-02-21T03:47:46.058Z,13.65
2023-02-21T03:49:17.715Z,13.82
2023-02-21T03:50:49.366Z,13.27
2023-02-21T03:52:21.044Z,13.00
2023-02-21T03:53:54.120Z,12.63
2023-02-21T03:55:25.885Z,15.52
2023-02-21T03:56:57.587Z,13.13
2023-02-21T03:58:29.236Z,14.32
2023-02-21T04:00:01.007Z,12.93
2023-02-21T04:01:32.692Z,12.65
2023-02-21T04:03:04.562Z,12.27
2023-02-21T04:04:36.260Z,12.90
2023-02-21T04:06:08.042Z,12.23
2023-02-21T04:07:39.702Z,12.82
2023-02-21T04:09:12.703Z,14.13
2023-02-21T04:10:51.983Z,12.25
2023-02-21T04:12:24.464Z,14.40
2023-02-21T04:13:56.252Z,13.32
2023-02-21T04:15:27.889Z,13.55
2023-02-21T04:16:59.619Z,13.25
2023-02-21T04:18:31.274Z,15.13
2023-02-21T04:20:03.035Z,15.35
2023-02-21T04:21:34.654Z,14.63
2023-02-21T04:23:06.324Z,14.48
2023-02-21T04:24:39.318Z,15.48
2023-02-21T04:26:11.037Z,14.70
2023-02-21T04:27:42.770Z,14.68
2023-02-21T04:29:14.416Z,14.77
2023-02-21T04:30:46.229Z,13.85
2023-02-21T04:32:20.151Z,14.32
2023-02-21T04:34:02.487Z,13.50
2023-02-21T04:35:41.309Z,13.52
2023-02-21T04:37:13.048Z,14.82
2023-02-21T04:38:44.710Z,13.70
2023-02-21T04:40:18.288Z,14.45
2023-02-21T04:41:49.978Z,13.50
2023-02-21T04:43:21.800Z,13.20
2023-02-21T04:45:00.112Z,14.07
2023-02-21T04:46:32.244Z,15.95
2023-02-21T04:48:04.247Z,17.10
2023-02-21T04:49:35.926Z,17.88
2023-02-21T04:51:15.093Z,17.80
2023-02-21T04:52:47.370Z,19.08
2023-02-21T04:54:19.035Z,18.90
2023-02-21T04:55:52.137Z,18.65
2023-02-21T04:57:23.836Z,20.88
2023-02-21T04:58:55.635Z,20.83
2023-02-21T05:00:27.271Z,21.38
2023-02-21T05:02:02.459Z,20.55
2023-02-21T05:03:34.515Z,20.08
2023-02-21T05:05:06.608Z,21.17
2023-02-21T05:06:38.410Z,20.10
2023-02-21T05:08:10.072Z,19.02
2023-02-21T05:09:41.705Z,23.30
2023-02-21T05:11:14.990Z,22.10
2023-02-21T05:12:46.899Z,22.52
2023-02-21T05:14:18.711Z,21.98
2023-02-21T05:15:50.415Z,19.88
2023-02-21T05:17:22.100Z,19.58
2023-02-21T05:18:53.805Z,21.33
2023-02-21T05:20:25.467Z,20.73
2023-02-21T05:21:58.210Z,19.08
2023-02-21T05:23:36.121Z,19.40
2023-02-21T05:25:08.293Z,20.02
2023-02-21T05:26:41.239Z,18.27
2023-02-21T05:28:12.913Z,16.33
2023-02-21T05:29:46.601Z,17.73
2023-02-21T05:31:18.587Z,18.55
2023-02-21T05:32:50.476Z,18.10
2023-02-21T05:34:22.121Z,19.08
2023-02-21T05:35:53.865Z,18.77
2023-02-21T05:37:25.544Z,16.25
2023-02-21T05:38:57.383Z,15.90
2023-02-21T05:40:29.113Z,16.60
2023-02-21T05:42:02.195Z,17.10
2023-02-21T05:43:33.906Z,19.92
2023-02-21T05:45:06.891Z,18.55
2023-02-21T05:46:38.639Z,18.02
2023-02-21T05:48:10.352Z,15.63
2023-02-21T05:49:42.082Z,17.15
2023-02-21T05:51:14.076Z,18.67
2023-02-21T05:52:45.893Z,20.77
2023-02-21T05:54:18.615Z,24.23
2023-02-21T05:55:50.422Z,18.13
2023-02-21T05:57:23.370Z,18.92
2023-02-21T05:58:55.077Z,16.15
2023-02-21T06:00:28.160Z,17.40
2023-02-21T06:01:59.868Z,18.23
2023-02-21T06:03:31.565Z,16.73
2023-02-21T06:05:03.326Z,17.33
2023-02-21T06:06:35.026Z,18.40
2023-02-21T06:08:09.152Z,20.17
2023-02-21T06:09:42.169Z,17.77
2023-02-21T06:11:14.147Z,19.95
2023-02-21T06:12:47.421Z,18.30
2023-02-21T06:14:19.804Z,16.75
2023-02-21T06:15:51.524Z,17.08
2023-02-21T06:17:23.268Z,17.20
2023-02-21T06:18:55.827Z,17.65
2023-02-21T06:20:27.542Z,18.67
2023-02-21T06:21:59.154Z,20.25
2023-02-21T06:23:30.812Z,18.05
2023-02-21T06:25:02.552Z,20.38
2023-02-21T06:26:34.294Z,21.70
2023-02-21T06:28:07.992Z,22.05
2023-02-21T06:29:39.706Z,18.77
2023-02-21T06:31:11.472Z,18.30
2023-02-21T06:32:43.397Z,18.27
2023-02-21T06:34:15.020Z,19.15
2023-02-21T06:35:46.697Z,18.70
2023-02-21T06:37:18.509Z,17.05
2023-02-21T06:38:53.294Z,18.10
2023-02-21T06:40:24.971Z,19.88
2023-02-21T06:41:56.693Z,24.08
2023-02-21T06:43:29.707Z,21.77
2023-02-21T06:45:01.351Z,18.98
2023-02-21T06:46:33.081Z,20.60
2023-02-21T06:48:05.021Z,17.88
2023-02-21T06:49:36.688Z,17.67
2023-02-21T06:51:11.314Z,23.83
2023-02-21T06:52:43.089Z,23.85
2023-02-21T06:54:17.163Z,21.17
2023-02-21T06:55:48.820Z,18.60
2023-02-21T06:57:20.582Z,20.17
2023-02-21T06:58:53.649Z,21.30
2023-02-21T07:00:27.014Z,19.33
2023-02-21T07:01:58.846Z,17.98
2023-02-21T07:03:30.574Z,20.58
2023-02-21T07:05:02.254Z,18.98
2023-02-21T07:06:33.933Z,22.38
2023-02-21T07:08:05.810Z,20.73
2023-02-21T07:09:37.433Z,20.70
2023-02-21T07:11:09.114Z,19.85
2023-02-21T07:12:40.742Z,18.35
2023-02-21T07:14:13.794Z,20.20
2023-02-21T07:15:45.683Z,19.90
2023-02-21T07:17:17.496Z,20.63
2023-02-21T07:18:49.155Z,19.90
2023-02-21T07:20:20.809Z,23.13
2023-02-21T07:21:52.482Z,26.60
2023-02-21T07:23:24.096Z,23.98
2023-02-21T07:24:55.997Z,31.83
2023-02-21T07:26:27.706Z,23.63
2023-02-21T07:27:59.313Z,24.85
2023-02-21T07:29:32.277Z,24.00
2023-02-21T07:31:04.214Z,22.80
2023-02-21T07:32:35.798Z,22.40
2023-02-21T07:34:07.533Z,24.55
2023-02-21T07:35:39.135Z,27.08
2023-02-21T07:37:10.903Z,27.13
2023-02-21T07:38:42.531Z,25.75
2023-02-21T07:40:14.191Z,22.10
2023-02-21T07:41:45.928Z,33.47
2023-02-21T07:43:17.603Z,28.02
2023-02-21T07:44:55.070Z,22.50
2023-02-21T07:46:28.661Z,33.15
2023-02-21T07:48:00.314Z,25.42
2023-02-21T07:49:31.982Z,38.20
2023-02-21T07:51:03.883Z,28.27
2023-02-21T07:52:35.593Z,22.85
2023-02-21T07:54:07.193Z,25.83
2023-02-21T07:55:38.862Z,28.38
2023-02-21T07:57:10.986Z,24.42
2023-02-21T07:58:42.561Z,29.75
2023-02-21T08:00:19.048Z,30.00
2023-02-21T08:01:50.765Z,34.40
2023-02-21T08:03:23.035Z,27.42
2023-02-21T08:04:54.740Z,23.30
2023-02-21T08:06:26.404Z,25.83
2023-02-21T08:08:00.757Z,25.48
2023-02-21T08:09:33.282Z,27.00
2023-02-21T08:11:05.403Z,22.63
2023-02-21T08:12:36.991Z,23.95
2023-02-21T08:14:08.595Z,29.45
2023-02-21T08:15:41.513Z,26.92
2023-02-21T08:17:14.122Z,27.58
2023-02-21T08:18:47.200Z,32.97
2023-02-21T08:20:18.973Z,29.55
2023-02-21T08:21:50.663Z,28.63
2023-02-21T08:23:22.375Z,32.42
2023-02-21T08:24:54.004Z,25.67
2023-02-21T08:26:25.743Z,25.58
2023-02-21T08:27:58.696Z,31.55
2023-02-21T08:29:30.309Z,30.27
2023-02-21T08:31:03.347Z,26.52
2023-02-21T08:32:35.367Z,25.83
2023-02-21T08:34:07.007Z,30.67
2023-02-21T08:35:38.599Z,31.30
2023-02-21T08:37:17.336Z,34.17
2023-02-21T08:38:48.938Z,25.52
2023-02-21T08:40:20.695Z,31.55
2023-02-21T08:41:52.495Z,30.65
2023-02-21T08:43:24.118Z,32.22
2023-02-21T08:44:56.010Z,25.73
2023-02-21T08:46:28.992Z,33.50
2023-02-21T08:48:00.625Z,29.88
2023-02-21T08:49:32.284Z,35.30
2023-02-21T08:51:04.231Z,25.63
2023-02-21T08:52:35.775Z,29.42
2023-02-21T08:54:07.488Z,28.42
2023-02-21T08:55:39.103Z,31.50
2023-02-21T08:57:10.734Z,29.63
2023-02-21T08:58:42.364Z,28.15
2023-02-21T09:00:15.034Z,34.85
2023-02-21T09:01:47.977Z,35.10
2023-02-21T09:03:19.590Z,35.60
2023-02-21T09:04:51.336Z,33.35
2023-02-21T09:06:22.992Z,33.63
2023-02-21T09:08:01.478Z,32.97
2023-02-21T09:09:33.348Z,36.97
2023-02-21T09:11:05.347Z,29.92
2023-02-21T09:12:37.203Z,25.08
2023-02-21T09:14:08.855Z,29.58
2023-02-21T09:15:40.569Z,28.27
2023-02-21T09:17:13.856Z,28.52
2023-02-21T09:18:53.738Z,29.50
2023-02-21T09:20:25.831Z,29.38
2023-02-21T09:21:57.530Z,29.23
2023-02-21T09:23:36.397Z,31.35
2023-02-21T09:25:12.986Z,32.28
2023-02-21T09:26:46.473Z,31.05
2023-02-21T09:28:18.182Z,28.27
2023-02-21T09:29:49.837Z,34.05
2023-02-21T09:31:21.505Z,25.42
2023-02-21T09:32:54.943Z,30.38
2023-02-21T09:34:26.906Z,31.13
2023-02-21T09:35:58.691Z,27.40
2023-02-21T09:37:30.476Z,28.17
2023-02-21T09:39:06.496Z,28.92
2023-02-21T09:40:41.065Z,27.77
2023-02-21T09:42:14.645Z,23.35
2023-02-21T09:43:47.083Z,27.00
2023-02-21T09:45:19.848Z,23.75
2023-02-21T09:46:53.238Z,22.67
2023-02-21T09:48:26.243Z,24.85
2023-02-21T09:50:00.132Z,27.42
2023-02-21T09:51:34.277Z,24.63
2023-02-21T09:53:06.212Z,24.40
2023-02-21T09:54:39.922Z,25.85
2023-02-21T09:56:13.874Z,26.85
2023-02-21T09:57:45.602Z,25.40
2023-02-21T09:59:17.290Z,22.67
2023-02-21T10:00:49.098Z,24.75
2023-02-21T10:02:30.862Z,27.45
2023-02-21T10:04:08.312Z,26.05
2023-02-21T10:05:43.808Z,25.58
2023-02-21T10:07:17.768Z,26.30
2023-02-21T10:08:52.396Z,27.50
2023-02-21T10:10:27.124Z,24.77
2023-02-21T10:12:03.469Z,25.52
2023-02-21T10:13:38.568Z,25.98
2023-02-21T10:15:26.470Z,25.33
2023-02-21T10:17:00.968Z,26.48
2023-02-21T10:18:35.384Z,27.48
2023-02-21T10:20:13.830Z,26.05
2023-02-21T10:21:47.378Z,27.38
2023-02-21T10:23:22.393Z,26.27
2023-02-21T10:24:54.127Z,28.05
2023-02-21T10:26:27.868Z,27.85
2023-02-21T10:27:59.786Z,29.52
2023-02-21T10:29:42.886Z,31.60
2023-02-21T10:31:16.469Z,29.60
2023-02-21T10:32:48.339Z,32.03
2023-02-21T10:34:23.186Z,29.45
2023-02-21T10:35:56.815Z,29.30
2023-02-21T10:37:36.720Z,31.20
2023-02-21T10:39:11.088Z,29.10
2023-02-21T10:40:43.200Z,30.60
2023-02-21T10:42:19.285Z,31.58
2023-02-21T10:43:53.242Z,27.27
2023-02-21T10:45:27.749Z,29.65
2023-02-21T10:47:01.793Z,32.33
2023-02-21T10:48:35.486Z,31.25
2023-02-21T10:50:10.326Z,29.30
2023-02-21T10:51:43.338Z,29.55
2023-02-21T10:53:29.255Z,31.45
2023-02-21T10:55:02.150Z,32.17
2023-02-21T10:56:33.870Z,31.08
2023-02-21T10:58:07.775Z,32.25
2023-02-21T10:59:42.318Z,31.10
2023-02-21T11:01:15.695Z,32.65
2023-02-21T11:02:47.733Z,30.75
2023-02-21T11:04:28.119Z,31.58
2023-02-21T11:06:01.886Z,28.95
2023-02-21T11:07:35.022Z,28.55
2023-02-21T11:09:31.938Z,27.55
2023-02-21T11:11:04.068Z,30.10
2023-02-21T11:12:35.771Z,29.35
2023-02-21T11:14:19.120Z,31.52
2023-02-21T11:15:50.780Z,29.25
2023-02-21T11:17:23.286Z,30.48
2023-02-21T11:19:04.027Z,30.63
2023-02-21T11:20:35.710Z,30.27
2023-02-21T11:22:09.137Z,30.05
2023-02-21T11:23:46.177Z,30.08
2023-02-21T11:25:21.925Z,28.20
2023-02-21T11:26:53.813Z,30.70
2023-02-21T11:28:25.507Z,29.73
2023-02-21T11:29:57.309Z,29.85
2023-02-21T11:31:29.697Z,29.33
2023-02-21T11:33:01.495Z,29.85
2023-02-21T11:34:33.211Z,31.50
2023-02-21T11:36:10.438Z,33.85
2023-02-21T11:37:49.698Z,30.80
2023-02-21T11:39:27.813Z,28.55
2023-02-21T11:41:00.624Z,28.35
2023-02-21T11:42:33.183Z,29.23
2023-02-21T11:44:22.617Z,30.98
2023-02-21T11:46:16.418Z,28.05
2023-02-21T11:47:52.858Z,25.83
2023-02-21T11:49:26.199Z,25.98
2023-02-21T11:50:57.947Z,25.25
2023-02-21T11:52:31.715Z,26.65
2023-02-21T11:54:04.261Z,25.90
2023-02-21T11:55:38.905Z,25.63
2023-02-21T11:57:16.384Z,24.33
2023-02-21T11:58:56.817Z,23.95
2023-02-21T12:00:32.526Z,24.17
2023-02-21T12:02:27.990Z,24.23
2023-02-21T12:04:20.703Z,25.02
2023-02-21T12:05:55.287Z,23.90
2023-02-21T12:07:45.116Z,25.58
2023-02-21T12:09:19.605Z,25.27
2023-02-21T12:10:55.565Z,25.90
2023-02-21T12:12:37.174Z,25.60
2023-02-21T12:14:33.337Z,26.27
2023-02-21T12:16:10.778Z,25.48
2023-02-21T12:17:50.035Z,24.90
2023-02-21T12:19:30.380Z,24.02
2023-02-21T12:21:09.168Z,26.88
2023-02-21T12:22:53.621Z,24.50
2023-02-21T12:24:41.437Z,23.38
2023-02-21T12:26:22.359Z,22.95
2023-02-21T12:27:56.185Z,23.25
2023-02-21T12:29:42.362Z,23.45
2023-02-21T12:31:26.727Z,20.90
2023-02-21T12:33:03.133Z,21.15
2023-02-21T12:34:40.543Z,20.58
2023-02-21T12:36:24.745Z,20.17
2023-02-21T12:37:58.565Z,20.92
2023-02-21T12:39:42.348Z,20.38
2023-02-21T12:41:24.852Z,19.40
2023-02-21T12:43:05.315Z,19.20
2023-02-21T12:44:41.172Z,18.52
2023-02-21T12:46:15.588Z,18.80
2023-02-21T12:47:51.912Z,17.92
2023-02-21T12:49:26.458Z,18.38
2023-02-21T12:51:00.156Z,19.52
2023-02-21T12:52:36.607Z,18.65
2023-02-21T12:54:14.230Z,17.80
2023-02-21T12:55:46.579Z,16.17
2023-02-21T12:57:21.885Z,17.02
2023-02-21T12:58:55.555Z,15.75
2023-02-21T13:00:28.445Z,15.80
2023-02-21T13:02:02.100Z,15.27
2023-02-21T13:03:40.246Z,15.73
2023-02-21T13:05:14.006Z,14.38
2023-02-21T13:06:48.580Z,15.18
2023-02-21T13:08:24.899Z,14.63
2023-02-21T13:10:00.670Z,15.60
2023-02-21T13:11:34.906Z,15.07
2023-02-21T13:13:11.689Z,15.05
2023-02-21T13:14:45.722Z,15.00
2023-02-21T13:16:18.597Z,15.77
2023-02-21T13:17:54.868Z,14.50
2023-02-21T13:19:26.878Z,13.95
2023-02-21T13:21:02.253Z,12.57
2023-02-21T13:23:30.665Z,14.38
2023-02-21T13:25:04.788Z,13.57
2023-02-21T13:26:46.622Z,13.40
2023-02-21T13:28:21.203Z,12.93
2023-02-21T13:30:12.457Z,14.13
2023-02-21T13:31:45.935Z,12.95
2023-02-21T13:33:26.404Z,12.98
2023-02-21T13:34:59.996Z,12.35
2023-02-21T13:36:33.199Z,12.40
2023-02-21T13:38:06.830Z,13.02
2023-02-21T13:39:38.670Z,13.30
2023-02-21T13:41:16.882Z,13.35
2023-02-21T13:42:48.731Z,13.40
2023-02-21T13:44:31.597Z,12.55
2023-02-21T13:46:27.309Z,14.57
2023-02-21T13:48:27.944Z,14.10
2023-02-21T13:49:59.639Z,13.32
2023-02-21T13:51:48.047Z,11.93
2023-02-21T13:53:20.608Z,12.23
2023-02-21T13:55:27.680Z,11.93
2023-02-21T13:56:59.449Z,11.23
2023-02-21T13:58:35.661Z,11.70
2023-02-21T14:00:55.670Z,12.77
2023-02-21T14:02:56.891Z,12.15
2023-02-21T14:05:09.140Z,12.38
2023-02-21T14:06:42.034Z,11.85
2023-02-21T14:08:15.808Z,12.52
2023-02-21T14:09:47.690Z,14.00
2023-02-21T14:11:21.003Z,14.70
2023-02-21T14:12:55.408Z,16.52
2023-02-21T14:14:28.066Z,13.27
2023-02-21T14:16:01.154Z,13.02
2023-02-21T14:17:33.003Z,13.73
2023-02-21T14:19:09.618Z,11.55
2023-02-21T14:20:42.092Z,12.38
2023-02-21T14:22:17.241Z,11.32
2023-02-21T14:23:50.529Z,11.20
2023-02-21T14:25:24.375Z,11.82
2023-02-21T14:26:57.741Z,11.45
2023-02-21T14:29:00.273Z,11.73
2023-02-21T14:30:33.190Z,10.70
2023-02-21T14:32:33.232Z,11.20
2023-02-21T14:34:04.942Z,9.80
2023-02-21T14:35:39.395Z,9.45
2023-02-21T14:37:13.293Z,9.82
2023-02-21T14:38:45.009Z,9.20
2023-02-21T14:40:21.563Z,10.35
2023-02-21T14:42:03.826Z,9.88
2023-02-21T14:43:54.531Z,10.70
2023-02-21T14:45:34.560Z,12.07
2023-02-21T14:47:19.713Z,12.82
2023-02-21T14:49:00.328Z,12.45
2023-02-21T14:50:39.090Z,11.57
2023-02-21T14:52:39.388Z,13.23
2023-02-21T14:54:44.411Z,12.55
2023-02-21T14:56:27.059Z,12.52
2023-02-21T14:58:33.603Z,11.45
2023-02-21T15:00:14.360Z,11.13
2023-02-21T15:01:56.380Z,12.27
2023-02-21T15:03:29.813Z,10.70
2023-02-21T15:05:06.303Z,11.75
2023-02-21T15:06:39.623Z,9.60
2023-02-21T15:08:14.313Z,12.07
2023-02-21T15:09:46.139Z,9.77
2023-02-21T15:11:26.457Z,10.00
2023-02-21T15:12:59.254Z,9.93
2023-02-21T15:14:54.087Z,9.60
2023-02-21T15:16:25.895Z,11.20
2023-02-21T15:18:01.269Z,11.45
2023-02-21T15:19:35.624Z,11.35
2023-02-21T15:21:25.997Z,14.90
2023-02-21T15:23:32.998Z,15.90
2023-02-21T15:25:23.232Z,12.65
2023-02-21T15:27:10.728Z,10.20
2023-02-21T15:28:42.606Z,10.30
2023-02-21T15:30:16.052Z,10.55
2023-02-21T15:31:49.509Z,9.52
2023-02-21T15:33:21.405Z,10.00
2023-02-21T15:34:56.247Z,10.80
2023-02-21T15:36:27.980Z,9.55
2023-02-21T15:38:04.219Z,9.40
2023-02-21T15:39:41.551Z,12.52
2023-02-21T15:41:28.237Z,13.02
2023-02-21T15:43:00.618Z,11.18
2023-02-21T15:44:43.615Z,12.05
2023-02-21T15:46:19.992Z,12.68
2023-02-21T15:47:54.555Z,11.57
2023-02-21T15:49:28.001Z,11.00
2023-02-21T15:51:01.695Z,11.52
2023-02-21T15:52:53.627Z,11.68
2023-02-21T15:54:30.389Z,14.07
2023-02-21T15:56:26.281Z,12.30
2023-02-21T15:58:16.676Z,12.80
2023-02-21T16:00:40.745Z,13.93
2023-02-21T16:02:25.164Z,11.98
2023-02-21T16:04:14.355Z,13.73
2023-02-21T16:05:56.886Z,11.90
2023-02-21T16:07:30.245Z,16.45
2023-02-21T16:09:04.496Z,16.48
2023-02-21T16:10:36.416Z,13.75
2023-02-21T16:12:24.148Z,26.73
2023-02-21T16:13:55.990Z,13.45
2023-02-21T16:15:28.914Z,12.48
2023-02-21T16:17:08.409Z,13.52
2023-02-21T16:18:40.594Z,14.75
2023-02-21T16:20:17.581Z,15.00
2023-02-21T16:21:51.156Z,14.95
2023-02-21T16:23:30.355Z,13.82
2023-02-21T16:25:17.697Z,15.00
2023-02-21T16:27:04.608Z,13.73
2023-02-21T16:28:42.310Z,13.65
2023-02-21T16:30:17.025Z,14.13
2023-02-21T16:31:49.739Z,17.98
2023-02-21T16:33:23.814Z,13.68
2023-02-21T16:34:59.208Z,14.43
2023-02-21T16:36:35.311Z,11.98
2023-02-21T16:38:13.708Z,12.95
2023-02-21T16:40:18.549Z,13.60
2023-02-21T16:41:53.252Z,13.45
2023-02-21T16:43:26.095Z,12.90
2023-02-21T16:44:59.306Z,10.82
2023-02-21T16:46:31.243Z,11.20
2023-02-21T16:48:06.507Z,11.65
2023-02-21T16:49:40.295Z,12.50
2023-02-21T16:51:23.313Z,10.38
2023-02-21T16:52:59.659Z,11.70
2023-02-21T16:54:31.756Z,10.98
2023-02-21T16:56:04.014Z,10.82
2023-02-21T16:57:38.588Z,12.32
2023-02-21T16:59:11.277Z,14.35
2023-02-21T17:00:44.767Z,12.20
2023-02-21T17:02:16.559Z,14.35
2023-02-21T17:03:48.360Z,14.82
2023-02-21T17:05:25.060Z,18.13
2023-02-21T17:06:57.860Z,15.05
2023-02-21T17:08:29.668Z,18.25
2023-02-21T17:10:01.499Z,15.02
2023-02-21T17:11:33.449Z,15.50
2023-02-21T17:13:05.280Z,12.52
2023-02-21T17:14:37.079Z,15.20
2023-02-21T17:16:10.403Z,14.43
2023-02-21T17:17:44.498Z,13.02
2023-02-21T17:19:23.778Z,11.25
2023-02-21T17:20:55.654Z,12.70
2023-02-21T17:22:27.465Z,11.07
2023-02-21T17:23:59.869Z,12.05
2023-02-21T17:25:35.200Z,13.32
2023-02-21T17:27:07.122Z,12.73
2023-02-21T17:28:39.691Z,14.30
2023-02-21T17:30:12.666Z,13.93
2023-02-21T17:31:46.149Z,15.00
2023-02-21T17:33:20.933Z,15.80
2023-02-21T17:34:52.699Z,14.57
2023-02-21T17:36:26.227Z,12.45
2023-02-21T17:38:01.643Z,13.07
2023-02-21T17:39:36.736Z,15.82
2023-02-21T17:41:08.830Z,13.85
2023-02-21T17:42:40.792Z,16.27
2023-02-21T17:44:14.488Z,15.07
2023-02-21T17:45:46.541Z,16.45
2023-02-21T17:47:19.791Z,16.15
2023-02-21T17:48:51.540Z,17.73
2023-02-21T17:50:23.311Z,19.50
2023-02-21T17:51:55.109Z,19.73
2023-02-21T17:53:32.572Z,17.98
2023-02-21T17:55:08.037Z,16.35
2023-02-21T17:56:39.923Z,25.40
2023-02-21T17:58:11.806Z,22.08
2023-02-21T17:59:51.368Z,20.42
2023-02-21T18:01:23.397Z,20.42
2023-02-21T18:02:56.935Z,18.88
2023-02-21T18:04:30.951Z,17.30
2023-02-21T18:06:02.725Z,17.73
2023-02-21T18:07:35.310Z,19.70
2023-02-21T18:09:07.770Z,18.15
2023-02-21T18:10:39.619Z,16.23
2023-02-21T18:12:11.428Z,14.20
2023-02-21T18:13:43.208Z,17.52
2023-02-21T18:15:15.447Z,16.67
2023-02-21T18:16:47.404Z,15.30
2023-02-21T18:18:20.790Z,15.30
2023-02-21T18:19:52.601Z,15.40
2023-02-21T18:21:25.092Z,14.32
2023-02-21T18:23:20.271Z,19.92
2023-02-21T18:24:54.472Z,22.92
2023-02-21T18:26:26.285Z,22.58
2023-02-21T18:27:58.115Z,21.55
2023-02-21T18:29:31.485Z,19.48
2023-02-21T18:31:03.357Z,20.55
2023-02-21T18:32:35.226Z,19.20
2023-02-21T18:34:08.528Z,19.60
2023-02-21T18:35:40.685Z,14.13
2023-02-21T18:37:12.508Z,14.90
2023-02-21T18:38:47.897Z,13.18
2023-02-21T18:40:19.999Z,10.90
2023-02-21T18:42:01.622Z,10.45
2023-02-21T18:45:33.003Z,11.45
2023-02-21T18:47:05.025Z,10.45
2023-02-21T18:48:36.962Z,12.30
2023-02-21T18:50:10.646Z,10.02
2023-02-21T18:51:44.534Z,12.70
2023-02-21T18:53:16.666Z,12.50
2023-02-21T18:54:49.664Z,13.30
2023-02-21T18:56:21.534Z,11.75
2023-02-21T18:57:59.547Z,11.55
2023-02-21T18:59:32.489Z,12.57
2023-02-21T19:01:12.920Z,11.15
2023-02-21T19:02:46.577Z,9.88
2023-02-21T19:04:18.487Z,11.50
2023-02-21T19:05:53.487Z,10.60
2023-02-21T19:07:25.379Z,10.82
2023-02-21T19:09:04.966Z,13.63
2023-02-21T19:10:36.738Z,11.38
2023-02-21T19:12:08.752Z,11.60
2023-02-21T19:13:40.692Z,11.85
2023-02-21T19:15:14.694Z,12.82
2023-02-21T19:16:52.791Z,11.52
2023-02-21T19:18:30.062Z,11.63
2023-02-21T19:20:03.372Z,11.15
2023-02-21T19:21:43.622Z,11.73
2023-02-21T19:23:21.412Z,10.43
2023-02-21T19:24:53.251Z,9.82
2023-02-21T19:26:29.231Z,10.55
2023-02-21T19:28:01.476Z,9.88
2023-02-21T19:29:37.643Z,12.40
2023-02-21T19:31:10.830Z,13.45
2023-02-21T19:32:42.860Z,12.68
2023-02-21T19:34:16.762Z,12.23
2023-02-21T19:35:51.097Z,12.90
2023-02-21T19:37:31.666Z,13.05
2023-02-21T19:39:03.997Z,14.13
2023-02-21T19:40:37.903Z,11.43
2023-02-21T19:42:12.648Z,10.93
2023-02-21T19:43:44.680Z,11.88
2023-02-21T19:45:26.815Z,11.02
2023-02-21T19:47:52.910Z,13.43
2023-02-21T19:49:02.737Z,11.05
2023-02-21T19:50:38.820Z,10.82
2023-02-21T19:54:15.683Z,11.00
2023-02-21T19:55:57.880Z,13.23
2023-02-21T19:57:29.830Z,11.10
2023-02-21T19:59:37.290Z,11.85
2023-02-21T20:01:09.283Z,12.13
2023-02-21T20:02:41.311Z,12.15
2023-02-21T20:04:13.280Z,12.48
2023-02-21T20:05:45.344Z,11.05
2023-02-21T20:07:19.695Z,11.50
2023-02-21T20:08:54.090Z,13.48
2023-02-21T20:10:27.244Z,12.88
2023-02-21T20:12:03.137Z,10.85
2023-02-21T20:13:35.825Z,12.00
2023-02-21T20:15:14.824Z,10.57
2023-02-21T20:16:49.300Z,13.07
2023-02-21T20:18:21.281Z,11.15
2023-02-21T20:19:59.223Z,13.32
2023-02-21T20:21:31.315Z,11.27
2023-02-21T20:23:04.443Z,14.00
2023-02-21T20:24:36.259Z,14.43
2023-02-21T20:26:13.821Z,15.30
2023-02-21T20:27:48.610Z,14.38
2023-02-21T20:29:26.871Z,21.20
2023-02-21T20:30:59.007Z,23.02
2023-02-21T20:32:32.640Z,26.75
2023-02-21T20:34:05.774Z,25.25
2023-02-21T20:35:38.221Z,22.77
2023-02-21T20:37:19.232Z,20.05
2023-02-21T20:38:51.106Z,18.83
2023-02-21T20:40:23.118Z,17.83
2023-02-21T20:41:58.274Z,17.80
2023-02-21T20:43:30.196Z,18.63
2023-02-21T20:45:02.688Z,18.60
2023-02-21T20:46:35.068Z,16.77
2023-02-21T20:48:08.168Z,16.30
2023-02-21T20:49:42.806Z,17.52
2023-02-21T20:51:15.072Z,15.60
2023-02-21T20:52:47.206Z,19.05
2023-02-21T20:54:22.146Z,16.33